Terminal Aerodrome Forecast
Issued by NWS Cleveland, OH

Home | Current Version | Previous Version | Graphics & Text | Print | Product List | Glossary On
Versions: 1 2 3 4 5 6 7 8 9 10 11 12
000
FTUS41 KCLE 271724
TAFYNG
TAF
KYNG 271724Z 2718/2818 05008KT P6SM FEW040
     FM280000 09010KT P6SM SKC=

USA.gov is the U.S. government's official web portal to all federal, state and local government web resources and services.